createdAt,value
2018-12-02T00:02:01.958Z,1.37
2018-12-02T00:04:36.917Z,1.13
2018-12-02T00:07:27.615Z,1.23
2018-12-02T00:10:06.134Z,1.03
2018-12-02T00:12:41.256Z,0.90
2018-12-02T00:15:21.456Z,0.80
2018-12-02T00:17:58.045Z,1.00
2018-12-02T00:20:33.811Z,0.90
2018-12-02T00:23:09.444Z,1.00
2018-12-02T00:25:44.711Z,0.93
2018-12-02T00:28:20.471Z,0.90
2018-12-02T00:30:55.818Z,0.90
2018-12-02T00:33:30.832Z,0.73
2018-12-02T00:36:06.804Z,1.10
2018-12-02T00:38:42.691Z,0.90
2018-12-02T00:41:18.628Z,0.80
2018-12-02T00:43:53.702Z,1.00
2018-12-02T00:46:29.628Z,1.00
2018-12-02T00:49:04.621Z,0.90
2018-12-02T00:51:40.505Z,1.00
2018-12-02T00:54:16.277Z,0.80
2018-12-02T00:56:51.284Z,0.90
2018-12-02T00:59:26.284Z,1.13
2018-12-02T01:02:02.195Z,1.10
2018-12-02T01:04:37.295Z,0.90
2018-12-02T01:07:12.444Z,0.83
2018-12-02T01:09:47.384Z,0.90
2018-12-02T01:12:23.320Z,0.80
2018-12-02T01:14:58.358Z,0.93
2018-12-02T01:17:34.240Z,0.80
2018-12-02T01:20:15.301Z,0.80
2018-12-02T01:22:50.396Z,0.70
2018-12-02T01:25:26.268Z,0.90
2018-12-02T01:28:02.006Z,0.70
2018-12-02T01:30:38.071Z,0.80
2018-12-02T01:33:13.742Z,0.80
2018-12-02T01:35:48.756Z,0.90
2018-12-02T01:38:24.422Z,0.80
2018-12-02T01:40:59.436Z,0.80
2018-12-02T01:43:35.256Z,0.83
2018-12-02T01:46:10.229Z,0.80
2018-12-02T01:48:46.038Z,0.90
2018-12-02T01:51:22.062Z,0.87
2018-12-02T01:53:57.884Z,1.10
2018-12-02T01:56:33.833Z,1.03
2018-12-02T01:59:09.037Z,0.90
2018-12-02T02:01:44.063Z,0.90
2018-12-02T02:04:19.899Z,0.90
2018-12-02T02:06:55.808Z,0.97
2018-12-02T02:09:31.565Z,1.03
2018-12-02T02:12:07.535Z,1.13
2018-12-02T02:14:42.643Z,1.17
2018-12-02T02:17:18.543Z,1.17
2018-12-02T02:19:53.704Z,1.30
2018-12-02T02:22:29.696Z,1.30
2018-12-02T02:25:07.189Z,1.13
2018-12-02T02:27:43.433Z,1.30
2018-12-02T02:30:24.340Z,1.63
2018-12-02T02:33:00.150Z,1.60
2018-12-02T02:35:36.080Z,1.20
2018-12-02T02:38:11.903Z,1.30
2018-12-02T02:40:46.963Z,1.80
2018-12-02T02:43:22.804Z,1.87
2018-12-02T02:45:58.617Z,1.70
2018-12-02T02:48:34.519Z,1.90
2018-12-02T02:51:09.626Z,2.03
2018-12-02T02:53:44.686Z,2.07
2018-12-02T02:56:19.671Z,2.20
2018-12-02T02:58:54.660Z,2.63
2018-12-02T03:01:30.579Z,2.80
2018-12-02T03:04:05.538Z,3.03
2018-12-02T03:06:41.453Z,3.57
2018-12-02T03:09:16.575Z,3.20
2018-12-02T03:11:51.627Z,3.63
2018-12-02T03:14:27.440Z,3.30
2018-12-02T03:17:03.230Z,3.40
2018-12-02T03:19:38.994Z,3.60
2018-12-02T03:22:14.857Z,3.00
2018-12-02T03:24:50.689Z,3.60
2018-12-02T03:27:25.813Z,3.97
2018-12-02T03:30:00.841Z,4.40
2018-12-02T03:32:36.630Z,4.17
2018-12-02T03:35:13.602Z,3.53
2018-12-02T03:37:49.430Z,3.70
2018-12-02T03:40:26.262Z,3.73
2018-12-02T03:43:02.022Z,3.53
2018-12-02T03:45:37.004Z,3.33
2018-12-02T03:48:11.903Z,3.47
2018-12-02T03:50:47.780Z,3.37
2018-12-02T03:53:23.573Z,3.20
2018-12-02T03:55:59.485Z,3.00
2018-12-02T03:58:35.215Z,3.33
2018-12-02T04:01:11.176Z,3.73
2018-12-02T04:03:46.186Z,3.07
2018-12-02T04:06:21.252Z,3.47
2018-12-02T04:08:56.951Z,3.93
2018-12-02T04:11:32.050Z,3.77
2018-12-02T04:14:07.783Z,3.63
2018-12-02T04:16:43.640Z,3.60
2018-12-02T04:19:19.523Z,4.10
2018-12-02T04:21:54.860Z,3.33
2018-12-02T04:24:29.935Z,4.13
2018-12-02T04:27:05.160Z,4.73
2018-12-02T04:29:40.790Z,3.90
2018-12-02T04:32:16.605Z,4.47
2018-12-02T04:34:51.635Z,4.37
2018-12-02T04:37:26.800Z,4.30
2018-12-02T04:40:01.831Z,4.20
2018-12-02T04:42:37.717Z,4.77
2018-12-02T04:45:13.682Z,4.10
2018-12-02T04:47:49.730Z,4.40
2018-12-02T04:50:25.567Z,5.33
2018-12-02T04:53:01.318Z,4.60
2018-12-02T04:55:37.282Z,4.40
2018-12-02T04:58:12.182Z,4.37
2018-12-02T05:00:48.133Z,4.63
2018-12-02T05:03:23.932Z,4.63
2018-12-02T05:05:59.920Z,4.43
2018-12-02T05:08:35.632Z,4.63
2018-12-02T05:11:11.467Z,4.57
2018-12-02T05:13:46.448Z,4.20
2018-12-02T05:16:22.463Z,4.17
2018-12-02T05:18:58.886Z,4.50
2018-12-02T05:21:34.218Z,4.10
2018-12-02T05:24:09.093Z,4.53
2018-12-02T05:26:45.019Z,4.20
2018-12-02T05:29:20.808Z,4.87
2018-12-02T05:31:56.303Z,4.73
2018-12-02T05:34:31.334Z,4.40
2018-12-02T05:37:07.205Z,4.70
2018-12-02T05:39:42.138Z,4.70
2018-12-02T05:42:23.040Z,4.57
2018-12-02T05:44:58.566Z,4.13
2018-12-02T05:47:33.575Z,4.37
2018-12-02T05:50:16.547Z,4.60
2018-12-02T05:52:54.564Z,4.60
2018-12-02T05:55:31.979Z,3.60
2018-12-02T05:58:08.223Z,3.90
2018-12-02T06:00:43.719Z,4.10
2018-12-02T06:03:19.746Z,4.23
2018-12-02T06:05:55.552Z,4.10
2018-12-02T06:08:31.441Z,4.23
2018-12-02T06:11:06.477Z,3.67
2018-12-02T06:13:41.820Z,3.80
2018-12-02T06:16:17.579Z,3.83
2018-12-02T06:18:52.657Z,4.03
2018-12-02T06:21:28.389Z,4.03
2018-12-02T06:24:04.257Z,4.17
2018-12-02T06:26:40.020Z,4.23
2018-12-02T06:29:15.851Z,3.77
2018-12-02T06:31:51.666Z,3.43
2018-12-02T06:34:26.610Z,3.43
2018-12-02T06:37:02.316Z,3.40
2018-12-02T06:39:38.167Z,3.80
2018-12-02T06:42:14.079Z,4.10
2018-12-02T06:44:50.050Z,4.07
2018-12-02T06:47:25.706Z,3.83
2018-12-02T06:50:01.463Z,3.73
2018-12-02T06:52:36.402Z,3.60
2018-12-02T06:55:21.469Z,3.20
2018-12-02T06:58:02.156Z,2.83
2018-12-02T07:00:46.126Z,2.87
2018-12-02T07:03:28.518Z,2.60
2018-12-02T07:06:04.331Z,3.10
2018-12-02T07:08:40.272Z,2.97
2018-12-02T07:11:15.288Z,2.47
2018-12-02T07:13:50.361Z,3.10
2018-12-02T07:16:26.317Z,3.03
2018-12-02T07:19:09.129Z,3.27
2018-12-02T07:28:41.031Z,3.30
2018-12-02T07:31:16.813Z,4.13
2018-12-02T07:33:52.696Z,4.70
2018-12-02T07:36:43.794Z,4.20
2018-12-02T07:40:13.382Z,4.60
2018-12-02T07:42:49.066Z,5.23
2018-12-02T07:45:24.075Z,5.43
2018-12-02T07:47:59.241Z,5.27
2018-12-02T07:50:35.031Z,5.37
2018-12-02T07:53:10.884Z,6.30
2018-12-02T07:55:46.144Z,6.37
2018-12-02T07:58:21.219Z,6.47
2018-12-02T08:00:56.142Z,5.70
2018-12-02T08:03:31.252Z,6.43
2018-12-02T08:06:07.150Z,7.17
2018-12-02T08:08:45.780Z,7.47
2018-12-02T08:11:20.869Z,7.13
2018-12-02T08:13:56.952Z,7.50
2018-12-02T08:16:32.806Z,6.83
2018-12-02T08:19:08.019Z,7.50
2018-12-02T08:21:43.770Z,7.83
2018-12-02T08:24:18.867Z,7.17
2018-12-02T08:26:54.598Z,7.50
2018-12-02T08:29:30.508Z,8.17
2018-12-02T08:32:06.232Z,7.60
2018-12-02T08:34:42.017Z,6.67
2018-12-02T08:37:17.950Z,7.03
2018-12-02T08:39:54.812Z,7.40
2018-12-02T08:42:30.679Z,7.83
2018-12-02T08:45:10.452Z,8.07
2018-12-02T08:47:46.257Z,8.00
2018-12-02T08:50:22.246Z,8.37
2018-12-02T08:52:58.081Z,8.43
2018-12-02T08:55:34.950Z,7.57
2018-12-02T08:58:10.767Z,8.60
2018-12-02T09:00:46.611Z,6.77
2018-12-02T09:03:22.340Z,8.83
2018-12-02T09:05:57.753Z,9.17
2018-12-02T09:08:32.949Z,8.27
2018-12-02T09:11:09.766Z,8.57
2018-12-02T09:13:45.627Z,8.97
2018-12-02T09:16:21.392Z,8.47
2018-12-02T09:18:57.210Z,9.30
2018-12-02T09:21:33.261Z,9.13
2018-12-02T09:24:09.149Z,8.10
2018-12-02T09:26:45.064Z,9.20
2018-12-02T09:29:20.891Z,9.67
2018-12-02T09:31:56.871Z,10.00
2018-12-02T09:34:32.787Z,11.27
2018-12-02T09:37:08.143Z,11.70
2018-12-02T09:39:43.772Z,11.43
2018-12-02T09:42:19.674Z,10.57
2018-12-02T09:44:55.654Z,10.83
2018-12-02T09:47:30.637Z,9.63
2018-12-02T09:50:08.592Z,10.43
2018-12-02T09:52:43.922Z,10.50
2018-12-02T09:55:27.115Z,9.37
2018-12-02T09:58:02.043Z,9.47
2018-12-02T10:00:37.993Z,9.53
2018-12-02T10:03:13.011Z,10.07
2018-12-02T10:05:48.879Z,9.80
2018-12-02T10:08:24.628Z,8.67
2018-12-02T10:11:00.570Z,9.00
2018-12-02T10:13:36.586Z,8.90
2018-12-02T10:16:15.625Z,9.47
2018-12-02T10:18:47.818Z,9.10
2018-12-02T10:21:24.194Z,9.47
2018-12-02T10:23:59.915Z,9.67
2018-12-02T10:26:35.084Z,9.10
2018-12-02T10:29:10.006Z,8.57
2018-12-02T10:31:45.866Z,8.57
2018-12-02T10:34:21.712Z,8.20
2018-12-02T10:36:57.571Z,8.00
2018-12-02T10:39:33.517Z,7.73
2018-12-02T10:42:08.771Z,7.87
2018-12-02T10:44:43.763Z,8.40
2018-12-02T10:47:19.666Z,8.03
2018-12-02T10:49:55.538Z,7.50
2018-12-02T10:52:31.693Z,7.33
2018-12-02T10:55:10.565Z,6.93
2018-12-02T10:57:45.655Z,7.07
2018-12-02T11:00:26.929Z,6.87
2018-12-02T11:03:02.459Z,6.60
2018-12-02T11:05:38.898Z,7.73
2018-12-02T11:08:14.259Z,8.93
2018-12-02T11:10:50.262Z,7.60
2018-12-02T11:13:26.056Z,9.27
2018-12-02T11:16:01.928Z,10.03
2018-12-02T11:18:37.715Z,10.57
2018-12-02T11:21:13.652Z,10.53
2018-12-02T11:23:49.187Z,11.27
2018-12-02T11:26:24.743Z,12.33
2018-12-02T11:28:59.720Z,11.67
2018-12-02T11:31:35.007Z,11.30
2018-12-02T11:34:10.866Z,12.80
2018-12-02T11:36:45.883Z,14.67
2018-12-02T11:39:20.832Z,14.60
2018-12-02T11:41:57.139Z,15.63
2018-12-02T11:44:32.914Z,17.50
2018-12-02T11:47:08.069Z,16.87
2018-12-02T11:49:43.940Z,17.90
2018-12-02T11:52:18.980Z,18.60
2018-12-02T11:54:54.819Z,18.63
2018-12-02T11:57:29.972Z,18.40
2018-12-02T12:00:13.986Z,17.40
2018-12-02T12:02:49.133Z,16.40
2018-12-02T12:05:24.961Z,17.40
2018-12-02T12:08:00.660Z,14.30
2018-12-02T12:10:36.689Z,14.73
2018-12-02T12:13:12.879Z,14.73
2018-12-02T12:15:48.378Z,13.13
2018-12-02T12:18:23.632Z,14.90
2018-12-02T12:21:13.773Z,14.63
2018-12-02T12:23:48.777Z,13.57
2018-12-02T12:26:24.738Z,14.27
2018-12-02T12:29:01.614Z,13.43
2018-12-02T12:31:37.441Z,14.57
2018-12-02T12:34:14.097Z,13.27
2018-12-02T12:36:49.435Z,13.20
2018-12-02T12:39:24.345Z,13.23
2018-12-02T12:41:59.329Z,13.87
2018-12-02T12:44:35.705Z,14.57
2018-12-02T12:47:11.441Z,14.17
2018-12-02T12:49:46.480Z,14.27
2018-12-02T12:52:22.924Z,13.53
2018-12-02T12:54:58.326Z,13.60
2018-12-02T12:57:33.429Z,13.40
2018-12-02T13:00:11.817Z,13.33
2018-12-02T13:02:47.541Z,13.73
2018-12-02T13:05:24.609Z,13.13
2018-12-02T13:08:01.599Z,12.20
2018-12-02T13:10:37.773Z,12.83
2018-12-02T13:13:13.262Z,13.23
2018-12-02T13:15:49.140Z,13.07
2018-12-02T13:18:25.159Z,13.80
2018-12-02T13:21:01.075Z,12.67
2018-12-02T13:23:36.178Z,12.33
2018-12-02T13:26:11.944Z,11.93
2018-12-02T13:28:47.111Z,12.50
2018-12-02T13:31:22.676Z,10.57
2018-12-02T13:33:57.690Z,10.70
2018-12-02T13:36:32.661Z,10.60
2018-12-02T13:39:10.211Z,10.87
2018-12-02T13:41:45.397Z,10.30
2018-12-02T13:44:21.548Z,9.97
2018-12-02T13:46:57.271Z,10.00
2018-12-02T13:49:33.224Z,10.70
2018-12-02T13:52:09.101Z,11.33
2018-12-02T13:54:44.696Z,10.67
2018-12-02T13:57:20.434Z,12.10
2018-12-02T13:59:56.355Z,11.20
2018-12-02T14:02:31.532Z,11.67
2018-12-02T14:05:08.621Z,11.17
2018-12-02T14:07:44.211Z,10.53
2018-12-02T14:10:19.419Z,11.80
2018-12-02T14:13:02.890Z,12.27
2018-12-02T14:15:48.383Z,11.80
2018-12-02T14:18:36.969Z,12.37
2018-12-02T14:21:12.857Z,13.23
2018-12-02T14:23:48.724Z,13.30
2018-12-02T14:26:24.508Z,14.83
2018-12-02T14:29:08.333Z,16.60
2018-12-02T14:31:47.824Z,18.33
2018-12-02T14:34:22.896Z,18.70
2018-12-02T14:36:58.763Z,20.50
2018-12-02T14:39:34.692Z,20.57
2018-12-02T14:42:10.489Z,22.90
2018-12-02T14:44:46.270Z,21.97
2018-12-02T14:47:21.870Z,20.90
2018-12-02T14:49:56.833Z,20.03
2018-12-02T14:52:32.628Z,19.73
2018-12-02T14:55:10.426Z,17.93
2018-12-02T14:57:47.349Z,19.23
2018-12-02T15:00:22.406Z,19.80
2018-12-02T15:02:58.302Z,19.57
2018-12-02T15:05:33.887Z,18.20
2018-12-02T15:08:08.897Z,17.07
2018-12-02T15:10:44.005Z,15.47
2018-12-02T15:13:18.908Z,14.70
2018-12-02T15:15:53.980Z,14.47
2018-12-02T15:18:29.724Z,15.17
2018-12-02T15:21:04.846Z,13.67
2018-12-02T15:23:40.516Z,15.70
2018-12-02T15:26:16.238Z,15.43
2018-12-02T15:28:51.956Z,16.53
2018-12-02T15:31:27.981Z,19.00
2018-12-02T15:34:03.892Z,19.33
2018-12-02T15:36:38.972Z,20.33
2018-12-02T15:39:14.951Z,21.90
2018-12-02T15:41:50.115Z,21.37
2018-12-02T15:44:25.720Z,20.87
2018-12-02T15:47:01.541Z,19.70
2018-12-02T15:49:37.433Z,20.27
2018-12-02T15:52:13.331Z,19.37
2018-12-02T15:54:48.394Z,18.30
2018-12-02T15:57:23.537Z,17.53
2018-12-02T15:59:58.867Z,17.07
2018-12-02T16:02:34.245Z,14.37
2018-12-02T16:05:10.113Z,15.03
2018-12-02T16:07:45.735Z,13.50
2018-12-02T16:10:20.753Z,14.63
2018-12-02T16:12:56.069Z,16.10
2018-12-02T16:15:33.441Z,15.97
2018-12-02T16:18:10.418Z,15.83
2018-12-02T16:20:49.663Z,13.67
2018-12-02T16:23:26.033Z,13.37
2018-12-02T16:26:01.056Z,12.73
2018-12-02T16:28:36.814Z,14.23
2018-12-02T16:31:12.664Z,15.20
2018-12-02T16:33:48.475Z,17.30
2018-12-02T16:36:23.737Z,17.57
2018-12-02T16:38:59.548Z,18.60
2018-12-02T16:41:34.690Z,17.83
2018-12-02T16:44:11.798Z,17.33
2018-12-02T16:46:47.285Z,18.57
2018-12-02T16:49:22.285Z,18.40
2018-12-02T16:51:58.208Z,20.77
2018-12-02T16:54:34.084Z,19.97
2018-12-02T16:57:11.246Z,21.40
2018-12-02T16:59:47.073Z,21.27
2018-12-02T17:02:23.017Z,19.60
2018-12-02T17:04:57.991Z,21.53
2018-12-02T17:07:33.898Z,21.60
2018-12-02T17:10:11.138Z,20.77
2018-12-02T17:12:46.671Z,19.70
2018-12-02T17:15:23.512Z,20.23
2018-12-02T17:18:00.811Z,21.73
2018-12-02T17:20:36.285Z,21.10
2018-12-02T17:23:12.291Z,21.30
2018-12-02T17:25:48.126Z,21.20
2018-12-02T17:28:28.670Z,24.37
2018-12-02T17:31:11.323Z,23.17
2018-12-02T17:33:46.578Z,24.33
2018-12-02T17:36:21.654Z,24.50
2018-12-02T17:39:01.204Z,24.17
2018-12-02T17:41:36.682Z,23.07
2018-12-02T17:44:12.661Z,23.23
2018-12-02T17:46:48.364Z,23.33
2018-12-02T17:49:24.331Z,23.53
2018-12-02T17:52:00.628Z,23.60
2018-12-02T17:54:36.412Z,23.40
2018-12-02T17:57:12.317Z,23.37
2018-12-02T17:59:47.298Z,21.90
2018-12-02T18:02:23.631Z,21.07
2018-12-02T18:04:58.991Z,21.97
2018-12-02T18:07:34.991Z,22.13
2018-12-02T18:10:12.403Z,18.03
2018-12-02T18:12:48.160Z,18.10
2018-12-02T18:15:24.109Z,14.83
2018-12-02T18:17:59.873Z,15.03
2018-12-02T18:20:34.869Z,13.20
2018-12-02T18:23:10.202Z,10.60
2018-12-02T18:25:45.748Z,8.90
2018-12-02T18:28:21.524Z,8.30
2018-12-02T18:30:57.459Z,8.77
2018-12-02T18:33:34.344Z,9.47
2018-12-02T18:36:13.689Z,10.63
2018-12-02T18:38:49.887Z,10.50
2018-12-02T18:41:36.249Z,10.37
2018-12-02T18:44:13.793Z,12.37
2018-12-02T18:46:49.515Z,12.93
2018-12-02T18:49:24.810Z,14.40
2018-12-02T18:52:00.703Z,14.20
2018-12-02T18:54:36.203Z,14.43
2018-12-02T18:57:11.272Z,11.83
2018-12-02T18:59:46.285Z,12.23
2018-12-02T19:02:22.190Z,11.43
2018-12-02T19:04:58.246Z,12.53
2018-12-02T19:07:34.058Z,12.50
2018-12-02T19:10:11.944Z,12.10
2018-12-02T19:12:46.937Z,11.47
2018-12-02T19:15:21.926Z,11.93
2018-12-02T19:17:57.389Z,11.17
2018-12-02T19:20:32.393Z,10.87
2018-12-02T19:23:10.431Z,11.97
2018-12-02T19:25:46.205Z,12.20
2018-12-02T19:28:21.292Z,12.20
2018-12-02T19:30:57.108Z,11.53
2018-12-02T19:33:32.676Z,12.27
2018-12-02T19:36:12.936Z,12.83
2018-12-02T19:38:48.225Z,12.93
2018-12-02T19:41:23.552Z,12.73
2018-12-02T19:43:59.216Z,11.17
2018-12-02T19:46:35.107Z,13.33
2018-12-02T19:49:10.964Z,12.77
2018-12-02T19:51:46.947Z,12.60
2018-12-02T19:54:22.209Z,12.10
2018-12-02T19:56:57.379Z,11.53
2018-12-02T19:59:32.517Z,11.73
2018-12-02T20:02:07.556Z,11.17
2018-12-02T20:04:43.283Z,10.63
2018-12-02T20:07:18.463Z,11.77
2018-12-02T20:09:54.238Z,12.13
2018-12-02T20:12:29.637Z,11.63
2018-12-02T20:15:07.475Z,11.40
2018-12-02T20:17:42.789Z,11.17
2018-12-02T20:20:24.731Z,11.23
2018-12-02T20:23:00.291Z,10.80
2018-12-02T20:25:36.278Z,10.47
2018-12-02T20:28:13.326Z,10.90
2018-12-02T20:30:48.943Z,10.57
2018-12-02T20:33:24.414Z,10.37
2018-12-02T20:35:59.400Z,11.00
2018-12-02T20:38:34.544Z,10.00
2018-12-02T20:41:10.708Z,10.67
2018-12-02T20:43:46.429Z,11.03
2018-12-02T20:46:22.326Z,10.03
2018-12-02T20:48:58.224Z,9.73
2018-12-02T20:51:33.213Z,9.83
2018-12-02T20:54:08.225Z,10.33
2018-12-02T20:56:44.092Z,10.33
2018-12-02T20:59:19.015Z,10.00
2018-12-02T21:01:55.001Z,10.27
2018-12-02T21:04:31.080Z,10.30
2018-12-02T21:07:08.912Z,10.90
2018-12-02T21:09:45.973Z,12.00
2018-12-02T21:12:21.694Z,12.00
2018-12-02T21:14:57.580Z,12.80
2018-12-02T21:17:32.510Z,12.77
2018-12-02T21:20:09.910Z,13.73
2018-12-02T21:22:45.356Z,13.07
2018-12-02T21:25:22.583Z,13.50
2018-12-02T21:27:58.194Z,13.43
2018-12-02T21:30:34.134Z,14.37
2018-12-02T21:33:09.993Z,13.50
2018-12-02T21:35:45.127Z,13.20
2018-12-02T21:38:21.009Z,12.90
2018-12-02T21:40:57.034Z,12.93
2018-12-02T21:43:33.022Z,11.80
2018-12-02T21:46:09.462Z,11.90
2018-12-02T21:48:45.108Z,11.37
2018-12-02T21:51:21.580Z,10.63
2018-12-02T21:53:57.033Z,11.73
2018-12-02T21:56:32.963Z,11.30
2018-12-02T21:59:08.911Z,12.00
2018-12-02T22:01:45.610Z,10.87
2018-12-02T22:04:20.936Z,11.60
2018-12-02T22:06:56.911Z,10.97
2018-12-02T22:09:32.718Z,10.97
2018-12-02T22:12:07.792Z,12.00
2018-12-02T22:14:45.009Z,10.57
2018-12-02T22:17:20.564Z,11.00
2018-12-02T22:19:55.700Z,11.53
2018-12-02T22:22:30.710Z,10.93
2018-12-02T22:25:16.355Z,12.47
2018-12-02T22:27:52.830Z,12.17
2018-12-02T22:30:28.616Z,12.40
2018-12-02T22:33:04.527Z,11.63
2018-12-02T22:35:39.608Z,12.20
2018-12-02T22:38:14.589Z,12.40
2018-12-02T22:40:49.812Z,12.13
2018-12-02T22:43:25.077Z,12.27
2018-12-02T22:45:59.997Z,13.50
2018-12-02T22:48:35.126Z,13.07
2018-12-02T22:51:11.865Z,13.67
2018-12-02T22:53:48.086Z,13.57
2018-12-02T22:56:23.439Z,14.30
2018-12-02T22:59:00.033Z,14.53
2018-12-02T23:01:41.141Z,14.43
2018-12-02T23:04:16.436Z,15.47
2018-12-02T23:06:52.351Z,15.70
2018-12-02T23:09:27.333Z,15.23
2018-12-02T23:12:04.290Z,14.73
2018-12-02T23:14:40.199Z,15.60
2018-12-02T23:17:20.160Z,16.13
2018-12-02T23:19:55.187Z,16.20
2018-12-02T23:22:30.240Z,15.10
2018-12-02T23:25:08.152Z,17.40
2018-12-02T23:27:43.252Z,17.47
2018-12-02T23:30:21.437Z,18.57
2018-12-02T23:32:56.431Z,16.73
2018-12-02T23:35:31.331Z,18.23
2018-12-02T23:38:07.212Z,17.50
2018-12-02T23:40:43.038Z,16.97
2018-12-02T23:43:18.001Z,16.80
2018-12-02T23:45:54.111Z,16.67
2018-12-02T23:48:30.335Z,15.47
2018-12-02T23:51:05.951Z,18.03
2018-12-02T23:53:43.224Z,17.60
2018-12-02T23:56:18.858Z,18.53
2018-12-02T23:58:54.021Z,19.23
